EmailTwitter


Observations de surface / Québec / EGBB

Régions: Québec | Canada | États-Unis | Europe | France | UK | Elsewhere
Station
Affichage
Infos & localisation pour EGBB | Aide pour décoder les METARs

Observations prises le 2017-02-24 à 10H20 UTC à BIRMINGHAM AIRPO, UK (EGBB)

Etat du ciel: ciel variable.

Température: 6.0 Celsius

Point de rosée: 1.0 Celsius

Humidité relative: 70%

Facteur vent: 2.

Vents: Nord-ouest à 20 km/h ou 11 noeuds.

Pression au niveau moyen de la mer: 101.60 kilopascals.

Visibilité horizontale: 6.21 milles terrestres ou 9.94 kilomètres.

Observation METAR:

EGBB 241020Z 30011KT 9999 SCT024 06/01 Q1016=